createdAt,value
2023-02-23T00:00:30.120Z,72.80
2023-02-23T00:03:01.532Z,66.97
2023-02-23T00:05:39.301Z,93.63
2023-02-23T00:08:07.767Z,88.60
2023-02-23T00:10:36.123Z,86.13
2023-02-23T00:13:05.135Z,89.17
2023-02-23T00:15:33.864Z,67.63
2023-02-23T00:18:04.701Z,64.53
2023-02-23T00:20:35.731Z,68.57
2023-02-23T00:23:04.834Z,68.77
2023-02-23T00:25:33.213Z,92.23
2023-02-23T00:28:01.699Z,69.50
2023-02-23T00:30:30.732Z,92.40
2023-02-23T00:32:59.326Z,85.87
2023-02-23T00:35:27.706Z,65.40
2023-02-23T00:37:57.640Z,62.27
2023-02-23T00:40:26.654Z,70.50
2023-02-23T00:42:55.463Z,66.40
2023-02-23T00:45:23.856Z,66.97
2023-02-23T00:47:52.425Z,74.37
2023-02-23T00:50:20.994Z,65.90
2023-02-23T00:52:49.497Z,68.30
2023-02-23T00:55:19.496Z,62.33
2023-02-23T00:57:47.839Z,57.63
2023-02-23T01:00:20.331Z,56.80
2023-02-23T01:02:50.504Z,48.30
2023-02-23T01:05:22.274Z,50.90
2023-02-23T01:07:51.203Z,56.73
2023-02-23T01:10:21.439Z,54.73
2023-02-23T01:12:51.056Z,45.07
2023-02-23T01:15:21.051Z,45.80
2023-02-23T01:17:49.654Z,47.63
2023-02-23T01:20:19.536Z,35.03
2023-02-23T01:22:50.086Z,42.73
2023-02-23T01:25:20.818Z,42.63
2023-02-23T01:27:49.279Z,39.90
2023-02-23T01:30:17.908Z,44.93
2023-02-23T01:32:46.369Z,40.10
2023-02-23T01:35:15.207Z,39.67
2023-02-23T01:37:44.822Z,46.70
2023-02-23T01:40:28.801Z,40.00
2023-02-23T01:43:01.346Z,38.73
2023-02-23T01:45:35.943Z,40.50
2023-02-23T01:48:08.017Z,64.83
2023-02-23T01:50:42.992Z,56.00
2023-02-23T01:53:12.187Z,44.67
2023-02-23T01:55:43.115Z,38.50
2023-02-23T01:58:17.379Z,82.37
2023-02-23T02:00:51.144Z,72.97
2023-02-23T02:03:26.832Z,92.17
2023-02-23T02:05:57.704Z,75.70
2023-02-23T02:08:27.284Z,35.87
2023-02-23T02:10:57.742Z,35.93
2023-02-23T02:13:30.858Z,39.87
2023-02-23T02:16:29.450Z,30.97
2023-02-23T02:19:24.462Z,36.20
2023-02-23T02:22:18.784Z,36.37
2023-02-23T02:25:19.750Z,38.53
2023-02-23T02:28:14.743Z,25.97
2023-02-23T02:31:01.013Z,35.23
2023-02-23T02:33:53.159Z,28.83
2023-02-23T02:36:56.131Z,53.90
2023-02-23T02:39:37.023Z,38.30
2023-02-23T02:42:19.164Z,33.27
2023-02-23T02:44:57.193Z,27.10
2023-02-23T02:47:31.616Z,44.40
2023-02-23T02:50:08.047Z,29.33
2023-02-23T02:52:41.542Z,26.53
2023-02-23T02:55:16.972Z,32.50
2023-02-23T02:57:48.064Z,32.43
2023-02-23T03:00:38.866Z,27.47
2023-02-23T03:03:24.665Z,39.20
2023-02-23T03:06:13.601Z,29.80
2023-02-23T03:09:07.453Z,53.70
2023-02-23T03:12:07.240Z,34.60
2023-02-23T03:15:04.826Z,52.20
2023-02-23T03:18:00.627Z,36.20
2023-02-23T03:20:56.659Z,40.40
2023-02-23T03:23:49.072Z,42.20
2023-02-23T03:26:41.592Z,158.67
2023-02-23T03:29:37.047Z,39.37
2023-02-23T03:32:30.253Z,43.97
2023-02-23T03:35:22.759Z,44.67
2023-02-23T03:38:15.749Z,37.13
2023-02-23T03:41:04.255Z,39.77
2023-02-23T03:43:53.824Z,39.10
2023-02-23T03:46:44.445Z,36.57
2023-02-23T03:49:32.823Z,31.77
2023-02-23T03:52:24.274Z,47.87
2023-02-23T03:55:15.177Z,34.60
2023-02-23T03:58:04.543Z,32.23
2023-02-23T04:00:53.461Z,29.50
2023-02-23T04:03:42.197Z,30.30
2023-02-23T04:06:32.764Z,26.23
2023-02-23T04:09:23.936Z,32.23
2023-02-23T04:12:15.734Z,34.00
2023-02-23T04:14:49.568Z,33.60
2023-02-23T04:17:23.524Z,31.23
2023-02-23T04:19:54.522Z,29.00
2023-02-23T04:22:24.158Z,30.90
2023-02-23T04:24:52.547Z,34.37
2023-02-23T04:27:21.273Z,44.20
2023-02-23T04:29:49.714Z,31.67
2023-02-23T04:32:21.086Z,30.73
2023-02-23T04:34:49.786Z,53.70
2023-02-23T04:37:19.569Z,37.00
2023-02-23T04:39:50.337Z,28.97
2023-02-23T04:42:19.403Z,32.37
2023-02-23T04:44:47.941Z,34.67
2023-02-23T04:47:17.056Z,35.77
2023-02-23T04:49:45.936Z,39.53
2023-02-23T04:52:14.458Z,33.80
2023-02-23T04:54:44.292Z,50.53
2023-02-23T04:57:12.754Z,38.03
2023-02-23T04:59:41.072Z,33.20
2023-02-23T05:02:09.602Z,26.60
2023-02-23T05:04:38.126Z,33.03
2023-02-23T05:07:07.099Z,31.10
2023-02-23T05:09:35.687Z,33.57
2023-02-23T05:12:05.978Z,29.40
2023-02-23T05:14:34.367Z,24.50
2023-02-23T05:17:02.918Z,23.90
2023-02-23T05:19:31.444Z,26.30
2023-02-23T05:21:59.742Z,27.73
2023-02-23T05:24:28.176Z,20.97
2023-02-23T05:26:56.473Z,21.53
2023-02-23T05:29:26.360Z,22.20
2023-02-23T05:31:54.899Z,22.97
2023-02-23T05:34:23.350Z,24.97
2023-02-23T05:36:51.982Z,21.27
2023-02-23T05:39:20.383Z,18.80
2023-02-23T05:41:48.802Z,25.27
2023-02-23T05:44:17.508Z,21.53
2023-02-23T05:46:48.633Z,22.87
2023-02-23T05:49:17.167Z,27.20
2023-02-23T05:51:45.559Z,19.30
2023-02-23T05:54:15.149Z,21.00
2023-02-23T05:56:43.939Z,19.77
2023-02-23T05:59:13.377Z,18.43
2023-02-23T06:01:41.851Z,17.20
2023-02-23T06:04:11.590Z,16.30
2023-02-23T06:06:40.185Z,21.67
2023-02-23T06:09:08.694Z,20.27
2023-02-23T06:11:37.091Z,18.27
2023-02-23T06:14:05.500Z,17.80
2023-02-23T06:16:33.997Z,19.67
2023-02-23T06:19:02.394Z,18.30
2023-02-23T06:21:32.272Z,18.07
2023-02-23T06:24:01.153Z,18.47
2023-02-23T06:26:29.884Z,20.53
2023-02-23T06:28:58.667Z,19.33
2023-02-23T06:31:27.128Z,20.03
2023-02-23T06:33:55.530Z,19.07
2023-02-23T06:36:24.639Z,18.00
2023-02-23T06:38:58.166Z,16.27
2023-02-23T06:41:27.236Z,16.10
2023-02-23T06:43:55.688Z,16.03
2023-02-23T06:46:24.833Z,14.33
2023-02-23T06:48:56.685Z,15.87
2023-02-23T06:51:25.425Z,15.60
2023-02-23T06:53:55.261Z,13.97
2023-02-23T06:56:24.178Z,15.00
2023-02-23T06:58:52.636Z,13.73
2023-02-23T07:01:21.457Z,14.73
2023-02-23T07:03:50.114Z,14.57
2023-02-23T07:06:18.512Z,13.47
2023-02-23T07:08:46.894Z,16.23
2023-02-23T07:11:18.937Z,13.13
2023-02-23T07:13:48.514Z,15.03
2023-02-23T07:16:17.014Z,14.20
2023-02-23T07:18:45.531Z,16.00
2023-02-23T07:21:13.938Z,13.93
2023-02-23T07:23:42.379Z,16.07
2023-02-23T07:26:12.408Z,14.10
2023-02-23T07:28:42.388Z,16.27
2023-02-23T07:31:10.825Z,19.23
2023-02-23T07:33:39.170Z,19.80
2023-02-23T07:36:07.958Z,21.37
2023-02-23T07:38:36.750Z,23.07
2023-02-23T07:41:05.257Z,21.07
2023-02-23T07:43:33.658Z,21.67
2023-02-23T07:46:04.494Z,21.87
2023-02-23T07:48:33.401Z,21.30
2023-02-23T07:51:01.956Z,24.80
2023-02-23T07:53:30.294Z,22.67
2023-02-23T07:55:59.154Z,28.43
2023-02-23T07:58:27.540Z,33.70
2023-02-23T08:00:56.069Z,35.73
2023-02-23T08:03:26.448Z,38.10
2023-02-23T08:05:54.996Z,33.77
2023-02-23T08:08:23.560Z,36.00
2023-02-23T08:10:52.293Z,33.63
2023-02-23T08:13:20.729Z,38.33
2023-02-23T08:15:49.068Z,44.13
2023-02-23T08:18:17.917Z,33.37
2023-02-23T08:20:47.933Z,36.53
2023-02-23T08:23:17.094Z,47.37
2023-02-23T08:25:45.734Z,38.50
2023-02-23T08:28:14.128Z,43.43
2023-02-23T08:30:43.032Z,52.47
2023-02-23T08:33:11.433Z,49.80
2023-02-23T08:35:39.818Z,47.67
2023-02-23T08:38:09.556Z,53.10
2023-02-23T08:40:38.011Z,40.83
2023-02-23T08:43:06.481Z,38.80
2023-02-23T08:45:34.958Z,49.17
2023-02-23T08:48:03.360Z,43.50
2023-02-23T08:50:31.954Z,51.20
2023-02-23T08:53:00.282Z,44.27
2023-02-23T08:55:30.103Z,48.33
2023-02-23T08:57:58.718Z,43.33
2023-02-23T09:00:27.388Z,42.43
2023-02-23T09:02:55.901Z,47.47
2023-02-23T09:05:24.308Z,45.27
2023-02-23T09:07:52.760Z,49.27
2023-02-23T09:10:25.018Z,46.73
2023-02-23T09:12:55.214Z,45.20
2023-02-23T09:15:23.886Z,49.83
2023-02-23T09:17:52.518Z,54.57
2023-02-23T09:20:26.842Z,64.33
2023-02-23T09:22:55.421Z,53.20
2023-02-23T09:25:24.304Z,52.27
2023-02-23T09:27:56.510Z,50.63
2023-02-23T09:30:24.965Z,55.27
2023-02-23T09:32:53.746Z,52.40
2023-02-23T09:35:24.438Z,56.80
2023-02-23T09:37:56.324Z,50.50
2023-02-23T09:40:27.831Z,54.03
2023-02-23T09:43:04.473Z,49.37
2023-02-23T09:45:40.453Z,57.47
2023-02-23T09:48:16.818Z,56.97
2023-02-23T09:50:49.522Z,64.90
2023-02-23T09:53:35.926Z,58.30
2023-02-23T09:56:10.860Z,58.40
2023-02-23T09:58:41.369Z,56.00
2023-02-23T10:01:27.701Z,59.13
2023-02-23T10:04:01.158Z,53.83
2023-02-23T10:06:30.394Z,58.20
2023-02-23T10:09:15.782Z,53.23
2023-02-23T10:11:51.786Z,50.03
2023-02-23T10:14:37.692Z,55.20
2023-02-23T10:17:16.666Z,49.80
2023-02-23T10:19:50.430Z,52.60
2023-02-23T10:22:20.897Z,48.10
2023-02-23T10:24:57.271Z,46.37
2023-02-23T10:27:31.804Z,44.83
2023-02-23T10:30:04.953Z,38.97
2023-02-23T10:32:41.982Z,35.47
2023-02-23T10:35:14.024Z,32.13
2023-02-23T10:37:42.651Z,28.97
2023-02-23T10:40:16.805Z,33.47
2023-02-23T10:42:45.898Z,27.47
2023-02-23T10:45:19.805Z,29.33
2023-02-23T10:47:49.624Z,28.37
2023-02-23T10:50:18.468Z,23.40
2023-02-23T10:52:49.242Z,24.20
2023-02-23T10:55:27.412Z,28.70
2023-02-23T10:58:17.139Z,28.57
2023-02-23T11:00:55.961Z,27.33
2023-02-23T11:03:29.583Z,24.90
2023-02-23T11:05:58.045Z,29.87
2023-02-23T11:08:30.723Z,26.70
2023-02-23T11:11:02.869Z,24.53
2023-02-23T11:13:36.610Z,25.60
2023-02-23T11:16:10.523Z,24.70
2023-02-23T11:18:40.703Z,28.00
2023-02-23T11:21:22.870Z,25.67
2023-02-23T11:23:53.518Z,31.10
2023-02-23T11:26:29.793Z,23.13
2023-02-23T11:29:00.912Z,27.17
2023-02-23T11:31:34.845Z,21.10
2023-02-23T11:34:05.766Z,26.90
2023-02-23T11:36:35.823Z,26.07
2023-02-23T11:39:19.497Z,26.20
2023-02-23T11:41:47.932Z,23.70
2023-02-23T11:44:22.797Z,23.67
2023-02-23T11:46:53.409Z,26.60
2023-02-23T11:49:24.956Z,27.13
2023-02-23T11:51:54.870Z,28.73
2023-02-23T11:54:28.603Z,25.63
2023-02-23T11:56:58.217Z,26.87
2023-02-23T11:59:31.394Z,26.10
2023-02-23T12:02:07.608Z,30.47
2023-02-23T12:04:39.120Z,27.20
2023-02-23T12:07:29.770Z,27.37
2023-02-23T12:10:06.615Z,22.37
2023-02-23T12:12:46.053Z,30.67
2023-02-23T12:15:25.134Z,27.93
2023-02-23T12:17:59.146Z,29.23
2023-02-23T12:20:31.818Z,24.47
2023-02-23T12:23:03.892Z,21.87
2023-02-23T12:25:40.575Z,22.87
2023-02-23T12:28:19.233Z,20.47
2023-02-23T12:30:52.237Z,24.97
2023-02-23T12:33:30.251Z,23.87
2023-02-23T12:36:01.935Z,21.30
2023-02-23T12:38:40.980Z,23.63
2023-02-23T12:41:13.804Z,24.50
2023-02-23T12:43:49.559Z,21.83
2023-02-23T12:46:23.369Z,21.90
2023-02-23T12:49:05.414Z,20.67
2023-02-23T12:51:37.301Z,23.63
2023-02-23T12:54:06.117Z,18.20
2023-02-23T12:56:51.911Z,16.03
2023-02-23T12:59:44.974Z,24.17
2023-02-23T13:02:21.776Z,15.00
2023-02-23T13:05:15.566Z,15.60
2023-02-23T13:07:53.998Z,9.77
2023-02-23T13:10:33.325Z,13.13
2023-02-23T13:13:18.786Z,8.10
2023-02-23T13:15:55.727Z,7.73
2023-02-23T13:18:28.467Z,13.43
2023-02-23T13:21:07.033Z,11.33
2023-02-23T13:23:41.633Z,10.97
2023-02-23T13:26:20.411Z,8.30
2023-02-23T13:28:57.327Z,10.67
2023-02-23T13:31:28.408Z,9.10
2023-02-23T13:34:00.183Z,11.83
2023-02-23T13:36:33.496Z,8.33
2023-02-23T13:39:32.612Z,9.77
2023-02-23T13:42:15.033Z,16.40
2023-02-23T13:44:50.606Z,10.57
2023-02-23T13:47:34.214Z,8.40
2023-02-23T13:50:08.870Z,9.30
2023-02-23T13:52:43.374Z,10.53
2023-02-23T13:55:48.531Z,12.53
2023-02-23T13:58:20.296Z,8.93
2023-02-23T14:00:56.213Z,7.13
2023-02-23T14:03:28.558Z,6.77
2023-02-23T14:06:02.198Z,8.63
2023-02-23T14:08:37.763Z,7.50
2023-02-23T14:11:07.340Z,6.23
2023-02-23T14:13:43.029Z,6.93
2023-02-23T14:16:17.444Z,8.40
2023-02-23T14:18:56.716Z,6.53
2023-02-23T14:21:33.512Z,10.17
2023-02-23T14:24:17.769Z,7.47
2023-02-23T14:27:08.537Z,9.67
2023-02-23T14:29:42.039Z,5.97
2023-02-23T14:32:31.873Z,8.03
2023-02-23T14:35:01.762Z,12.50
2023-02-23T14:37:36.443Z,6.57
2023-02-23T14:40:15.080Z,6.00
2023-02-23T14:42:48.512Z,7.67
2023-02-23T14:45:27.253Z,8.13
2023-02-23T14:48:00.947Z,5.20
2023-02-23T14:50:32.308Z,7.77
2023-02-23T14:53:02.396Z,6.30
2023-02-23T14:55:35.514Z,6.73
2023-02-23T14:58:05.132Z,5.53
2023-02-23T15:00:42.716Z,5.00
2023-02-23T15:03:13.869Z,6.57
2023-02-23T15:05:45.036Z,5.67
2023-02-23T15:08:17.551Z,5.90
2023-02-23T15:10:50.399Z,4.27
2023-02-23T15:13:30.758Z,5.73
2023-02-23T15:16:02.596Z,4.87
2023-02-23T15:18:35.247Z,5.07
2023-02-23T15:21:08.602Z,7.67
2023-02-23T15:23:38.477Z,4.23
2023-02-23T15:26:24.490Z,5.33
2023-02-23T15:28:53.557Z,5.37
2023-02-23T15:31:22.586Z,6.00
2023-02-23T15:33:52.022Z,5.60
2023-02-23T15:36:29.325Z,6.57
2023-02-23T15:39:02.441Z,6.10
2023-02-23T15:41:35.042Z,7.47
2023-02-23T15:44:07.958Z,9.20
2023-02-23T15:46:38.053Z,9.70
2023-02-23T15:49:07.315Z,8.30
2023-02-23T15:51:38.938Z,8.07
2023-02-23T15:54:21.721Z,7.87
2023-02-23T15:56:54.822Z,9.50
2023-02-23T15:59:28.926Z,9.60
2023-02-23T16:02:00.422Z,8.50
2023-02-23T16:04:32.588Z,9.13
2023-02-23T16:07:19.194Z,7.93
2023-02-23T16:09:53.120Z,5.07
2023-02-23T16:12:26.309Z,8.73
2023-02-23T16:14:58.404Z,7.67
2023-02-23T16:17:30.081Z,13.30
2023-02-23T16:20:11.410Z,6.00
2023-02-23T16:22:41.132Z,6.90
2023-02-23T16:25:14.486Z,6.60
2023-02-23T16:27:45.714Z,10.67
2023-02-23T16:30:23.462Z,6.33
2023-02-23T16:33:06.484Z,8.23
2023-02-23T16:35:37.935Z,6.70
2023-02-23T16:38:14.355Z,7.57
2023-02-23T16:40:43.353Z,5.27
2023-02-23T16:43:13.186Z,7.13
2023-02-23T16:45:43.825Z,9.20
2023-02-23T16:48:15.207Z,10.03
2023-02-23T16:50:45.775Z,9.83
2023-02-23T16:53:14.516Z,9.40
2023-02-23T16:55:48.096Z,9.13
2023-02-23T16:58:20.883Z,6.83
2023-02-23T17:00:49.436Z,7.90
2023-02-23T17:03:20.592Z,7.90
2023-02-23T17:05:49.563Z,10.37
2023-02-23T17:08:19.220Z,10.20
2023-02-23T17:10:49.956Z,8.50
2023-02-23T17:13:22.049Z,9.30
2023-02-23T17:15:53.875Z,9.37
2023-02-23T17:20:59.552Z,8.07
2023-02-23T17:23:38.454Z,5.57
2023-02-23T17:26:08.391Z,9.53
2023-02-23T17:28:38.541Z,7.90
2023-02-23T17:31:09.330Z,16.93
2023-02-23T17:33:40.197Z,37.10
2023-02-23T17:36:11.212Z,41.23
2023-02-23T17:38:44.406Z,10.17
2023-02-23T17:41:15.652Z,8.10
2023-02-23T17:43:45.863Z,8.30
2023-02-23T17:46:14.644Z,37.23
2023-02-23T17:48:44.874Z,13.03
2023-02-23T17:51:16.244Z,10.37
2023-02-23T17:53:45.365Z,9.07
2023-02-23T17:56:13.821Z,16.53
2023-02-23T17:58:42.174Z,9.57
2023-02-23T18:01:11.886Z,8.93
2023-02-23T18:03:40.445Z,9.00
2023-02-23T18:06:10.559Z,10.03
2023-02-23T18:08:39.981Z,10.53
2023-02-23T18:11:08.393Z,9.43
2023-02-23T18:13:37.056Z,7.67
2023-02-23T18:16:09.578Z,10.00
2023-02-23T18:18:41.345Z,10.33
2023-02-23T18:21:13.003Z,11.43
2023-02-23T18:23:41.602Z,9.13
2023-02-23T18:26:12.416Z,9.43
2023-02-23T18:28:44.464Z,11.07
2023-02-23T18:31:15.689Z,10.63
2023-02-23T18:33:46.442Z,12.10
2023-02-23T18:36:20.293Z,9.83
2023-02-23T18:38:48.780Z,33.27
2023-02-23T18:41:17.317Z,37.13
2023-02-23T18:43:46.237Z,18.53
2023-02-23T18:46:15.631Z,16.43
2023-02-23T18:48:45.656Z,13.93
2023-02-23T18:51:14.784Z,12.37
2023-02-23T18:53:44.731Z,11.70
2023-02-23T18:56:14.980Z,16.10
2023-02-23T18:58:45.755Z,12.50
2023-02-23T19:01:18.272Z,14.17
2023-02-23T19:03:48.339Z,11.80
2023-02-23T19:06:19.372Z,12.00
2023-02-23T19:08:54.282Z,14.17
2023-02-23T19:11:27.555Z,11.53
2023-02-23T19:13:57.537Z,10.60
2023-02-23T19:16:28.119Z,11.10
2023-02-23T19:18:58.104Z,9.53
2023-02-23T19:21:26.687Z,9.87
2023-02-23T19:23:57.831Z,8.63
2023-02-23T19:26:27.525Z,9.60
2023-02-23T19:28:56.318Z,10.17
2023-02-23T19:31:26.283Z,10.13
2023-02-23T19:33:56.821Z,9.80
2023-02-23T19:36:30.823Z,7.57
2023-02-23T19:39:10.905Z,7.03
2023-02-23T19:41:41.654Z,5.40
2023-02-23T19:44:10.535Z,8.37
2023-02-23T19:46:40.056Z,8.07
2023-02-23T19:49:08.604Z,8.23
2023-02-23T19:51:38.640Z,13.00
2023-02-23T19:54:07.684Z,16.67
2023-02-23T19:56:36.559Z,15.87
2023-02-23T19:59:06.454Z,17.43
2023-02-23T20:01:34.917Z,24.93
2023-02-23T20:04:06.682Z,18.83
2023-02-23T20:06:44.770Z,40.67
2023-02-23T20:09:13.577Z,23.97
2023-02-23T20:11:42.781Z,33.37
2023-02-23T20:14:12.606Z,32.50
2023-02-23T20:16:41.448Z,15.37
2023-02-23T20:19:11.831Z,14.97
2023-02-23T20:21:42.264Z,9.37
2023-02-23T20:24:12.917Z,12.80
2023-02-23T20:26:41.309Z,10.97
2023-02-23T20:29:13.306Z,14.63
2023-02-23T20:31:50.759Z,12.20
2023-02-23T20:34:24.695Z,13.93
2023-02-23T20:36:58.130Z,10.53
2023-02-23T20:39:27.234Z,11.33
2023-02-23T20:42:05.344Z,8.23
2023-02-23T20:44:43.953Z,9.70
2023-02-23T20:47:27.630Z,8.03
2023-02-23T20:50:05.202Z,9.33
2023-02-23T20:52:35.389Z,13.67
2023-02-23T20:55:05.339Z,11.57
2023-02-23T20:57:34.612Z,9.43
2023-02-23T21:00:22.848Z,12.10
2023-02-23T21:02:55.785Z,7.53
2023-02-23T21:05:26.308Z,12.87
2023-02-23T21:08:00.101Z,9.23
2023-02-23T21:10:31.504Z,14.13
2023-02-23T21:13:00.811Z,12.43
2023-02-23T21:15:30.183Z,11.17
2023-02-23T21:17:59.786Z,10.47
2023-02-23T21:20:28.786Z,10.77
2023-02-23T21:22:58.726Z,11.40
2023-02-23T21:25:28.626Z,14.17
2023-02-23T21:27:57.124Z,11.03
2023-02-23T21:30:28.771Z,13.33
2023-02-23T21:33:00.367Z,12.07
2023-02-23T21:35:28.977Z,13.07
2023-02-23T21:37:59.423Z,11.93
2023-02-23T21:40:27.979Z,10.43
2023-02-23T21:42:56.374Z,12.57
2023-02-23T21:45:24.794Z,12.23
2023-02-23T21:47:53.272Z,11.40
2023-02-23T21:50:21.718Z,11.80
2023-02-23T21:52:53.271Z,10.30
2023-02-23T21:55:23.261Z,9.70
2023-02-23T21:57:53.023Z,14.07
2023-02-23T22:00:23.100Z,11.50
2023-02-23T22:02:52.064Z,11.20
2023-02-23T22:05:21.077Z,11.20
2023-02-23T22:07:51.522Z,10.60
2023-02-23T22:10:23.168Z,10.83
2023-02-23T22:12:57.070Z,9.43
2023-02-23T22:15:28.384Z,12.17
2023-02-23T22:17:57.207Z,9.70
2023-02-23T22:20:26.355Z,8.80
2023-02-23T22:22:54.933Z,10.47
2023-02-23T22:25:26.232Z,10.17
2023-02-23T22:27:54.715Z,12.57
2023-02-23T22:30:23.536Z,9.10
2023-02-23T22:32:52.297Z,13.90
2023-02-23T22:35:20.877Z,11.47
2023-02-23T22:37:49.323Z,11.07
2023-02-23T22:40:17.979Z,10.27
2023-02-23T22:42:49.624Z,15.37
2023-02-23T22:45:19.004Z,10.67
2023-02-23T22:47:47.500Z,10.60
2023-02-23T22:50:18.274Z,17.57
2023-02-23T22:52:47.472Z,13.53
2023-02-23T22:55:15.998Z,17.77
2023-02-23T22:57:44.386Z,12.20
2023-02-23T23:00:17.699Z,16.80
2023-02-23T23:02:46.197Z,16.17
2023-02-23T23:05:15.741Z,15.47
2023-02-23T23:07:46.736Z,17.80
2023-02-23T23:10:16.198Z,16.13
2023-02-23T23:12:45.103Z,10.33
2023-02-23T23:15:17.496Z,12.40
2023-02-23T23:17:49.334Z,11.33
2023-02-23T23:20:25.858Z,12.30
2023-02-23T23:22:54.972Z,12.00
2023-02-23T23:25:23.978Z,12.00
2023-02-23T23:27:55.691Z,13.37
2023-02-23T23:30:29.343Z,11.10
2023-02-23T23:32:57.965Z,9.83
2023-02-23T23:35:26.910Z,9.23
2023-02-23T23:37:55.401Z,14.57
2023-02-23T23:40:24.909Z,9.73
2023-02-23T23:42:55.524Z,12.33
2023-02-23T23:45:25.865Z,12.17
2023-02-23T23:47:54.403Z,8.87
2023-02-23T23:50:27.110Z,10.27
2023-02-23T23:52:57.187Z,12.77
2023-02-23T23:55:31.553Z,10.17
2023-02-23T23:58:00.812Z,10.73
